DAAT/TMR METAR and TAF weather

Enter ICAO airport designator
Station Type Date Time Source
DAAT METAR 2018/12/12 17:30 UTC NOAA

DAAT 121730Z 25007KT CAVOK 16/M09 Q1024


Station Type Date Time Source
DAAT Decoded METAR 2018/12/12 17:30 UTC NOAA

Tamanrasset / Aguenna, Algeria (DAAT) 22-49N 005-28E
Dec 12, 2018 - 12:30 PM EST / 2018.12.12 1730 UTC
Wind: from the WSW (250 degrees) at 8 MPH (7 KT):0
Visibility: greater than 7 mile(s):0
Temperature: 60 F (16 C)
Dew Point: 15 F (-9 C)
Relative Humidity: 17%
Pressure (altimeter): 30.24 in. Hg (1024 hPa)
ob: DAAT 121730Z 25007KT CAVOK 16/M09 Q1024
cycle: 17

Station Type Date Time Source
DAAT TAF 2018/12/12 18:33 UTC NOAA

TAF DAAT 121700Z 1218/1318 28010KT CAVOK
BECMG 1219/1222 05008KT
BECMG 1309/1312 22010KT


Example: see airport list